KRYY/RYY METAR and TAF weather

Enter ICAO airport designator
Station Type Date Time Source
KRYY METAR 2021/04/13 21:50 UTC NOAA

KRYY 132150Z 32007KT 10SM CLR 28/06 A3003 RMK AO2 SLP891 T02830061 PNO $


Station Type Date Time Source
KRYY Decoded METAR 2021/04/13 21:50 UTC NOAA

Marietta, Cobb County-McCollum Field Airport, GA, United States (KRYY) 34-00-47N 084-35-55W
Apr 13, 2021 - 05:50 PM EDT / 2021.04.13 2150 UTC
Wind: from the NW (320 degrees) at 8 MPH (7 KT):0
Visibility: 10 mile(s):0
Sky conditions: clear
Temperature: 82.9 F (28.3 C)
Dew Point: 43.0 F (6.1 C)
Relative Humidity: 24%
Pressure (altimeter): 30.03 in. Hg (1016 hPa)
ob: KRYY 132150Z 32007KT 10SM CLR 28/06 A3003 RMK AO2 SLP891 T02830061 PNO
cycle: 22

Station Type Date Time Source
KRYY TAF 2021/04/13 20:33 UTC NOAA

TAF
AMD KRYY 131930Z 1320/1418 31006KT P6SM FEW060 SCT250
FM140100 24003KT P6SM SCT250
FM141400 24005KT P6SM SCT100 BKN250

Example: see airport list